Terminal Aerodrome Forecast
Issued by NWS

Home | Current Version | Previous Version | Text Only | Print | Product List | Glossary On
Versions: 1 2 3 4 5 6 7 8 9 10 11 12 13 14 15 16 17
000
FTUS46 KSEW 271731
TAFOLM
TAF
KOLM 271731Z 2718/2818 01006KT P6SM SCT012 BKN040
      TEMPO 2718/2719 BKN012 OVC040
     FM272000 36008KT P6SM SCT040
     FM280900 00000KT 2SM BR BKN002
     FM281000 00000KT 1/4SM FG VV001
     FM281700 VRB04KT 1/2SM FG BKN002=

USA.gov is the U.S. government's official web portal to all federal, state and local government web resources and services.